Metar Cercanos

 

LEPA - Palma De Mallorc, Spain
Distance from station: ONO 38km
Actualización: Sat, 15-May-2021 5:00am CEST
Few Clouds
Few Clouds
 Viento del calm
Viento: Calma
Temperatura: 11°C
Rocío: 10°C
Humedad: 94%
Barómetro: 1016 hPa
Clouds: Few Clouds
Visibility: 10 km
Cloud details: Few Clouds 914 m
2021/05/15 03:00 LEPA 150300Z 00000KT 9999 FEW030 11/10 Q1016 NOSIG
LEMH - Mahon/Menorca Is, Spain
Distance from station: ENE 105km
Actualización: Sat, 15-May-2021 5:00am CEST
Parcialmente nuboso
Parcialmente nuboso
 Viento del SO
Viento: SO 15 km/h
Temperatura: 15°C
Rocío: 13°C
Humedad: 88%
Barómetro: 1016 hPa
Clouds: Parcialmente nuboso
Visibility: 10 km
Cloud details: Parcialmente nuboso 335 m
Parcialmente nuboso 396 m
2021/05/15 03:00 LEMH 150300Z AUTO 23008KT 200V270 9999 SCT011/// SCT013/// 15/13 Q1016
 
LEIB - Ibiza/Es Codola, Spain
Distance from station: OSO 165km
Actualización: Sat, 15-May-2021 5:00am CEST
Despejado
Despejado
 Viento del SSO
Viento: SSO 15 km/h
Temperatura: 18°C
Rocío: 16°C
Humedad: 88%
Barómetro: 1016 hPa
Resumen: Despejado
Visibility: greater than 10 km
2021/05/15 03:00 LEIB 150300Z 20008KT 170V230 CAVOK 18/16 Q1016 NOSIG
LEBL - Barcelona Airpor, Spain
Distance from station: NNO 225km
Actualización: Sat, 15-May-2021 5:00am CEST
Few Clouds
Few Clouds
 Viento del NNO
Viento: NNO 4 km/h
Temperatura: 14°C
Rocío: 11°C
Humedad: 82%
Barómetro: 1014 hPa
Clouds: Few Clouds
Visibility: 10 km
Cloud details: Few Clouds 457 m
2021/05/15 03:00 LEBL 150300Z 33002KT 9999 FEW015 14/11 Q1014 NOSIG
 
LEVC - Valencia (civ/Mi, Spain
Distance from station: NO 188km
Actualización: Sat, 15-May-2021 5:00am CEST
Despejado
Despejado
 Viento del O
Viento: O 6 km/h
Temperatura: 14°C
Rocío: 10°C
Humedad: 77%
Barómetro: 1015 hPa
Resumen: Despejado
Visibility: greater than 10 km
2021/05/15 03:00 LEVC 150300Z 27003KT CAVOK 14/10 Q1015 NOSIG
LEGE - Gerona/Costa Bra, Spain
Distance from station: N 276km
Actualización: Sat, 15-May-2021 5:00am CEST
Few Clouds
Few Clouds
 Viento del calm
Viento: Calma
Temperatura: 9°C
Rocío: 8°C
Humedad: 94%
Barómetro: 1014 hPa
Clouds: Few Clouds
Visibility: 10 km
Cloud details: Few Clouds 427 m
2021/05/15 03:00 LEGE 150300Z 00000KT 9999 FEW014 09/08 Q1014
 
LEAL - Alicante/El Alte, Spain
Distance from station: OSO 344km
Actualización: Sat, 15-May-2021 5:00am CEST
Despejado
Despejado
 Viento del O
Viento: O 9 km/h
Temperatura: 15°C
Rocío: 12°C
Humedad: 82%
Barómetro: 1016 hPa
Resumen: Despejado
Visibility: greater than 10 km
2021/05/15 03:00 LEAL 150300Z 27005KT CAVOK 15/12 Q1016 NOSIG
LEAM - Almeria Airport, Spain
Distance from station: SSO 56km
Actualización: Sat, 15-May-2021 5:00am CEST
Despejado
Despejado
 Viento del O
Viento: O 6 km/h
Temperatura: 18°C
Rocío: 12°C
Humedad: 68%
Barómetro: 1016 hPa
Resumen: Despejado
Visibility: greater than 10 km
2021/05/15 03:00 LEAM 150300Z 26003KT 150V300 CAVOK 18/12 Q1016
 
LEZG - Zaragoza (mil/Ci, Spain
Distance from station: NO 431km
Actualización: Sat, 15-May-2021 5:00am CEST
Despejado
Despejado
 Viento del E
Viento: E 11 km/h
Temperatura: 13°C
Rocío: 9°C
Humedad: 77%
Barómetro: 1014 hPa
Resumen: Despejado
Visibility: greater than 10 km
2021/05/15 03:00 LEZG 150300Z 09006KT CAVOK 13/09 Q1014
LEMD - Madrid/Barajas, Spain
Distance from station: ONO 234km
Actualización: Sat, 15-May-2021 5:00am CEST
Despejado
Despejado
 Viento del S
Viento: S 9 km/h
Temperatura: 13°C
Rocío: 7°C
Humedad: 67%
Barómetro: 1016 hPa
Resumen: Despejado
Visibility: greater than 10 km
2021/05/15 03:00 LEMD 150300Z 17005KT CAVOK 13/07 Q1016 NOSIG
 
LEGR - Granada Airport, Spain
Distance from station: OSO 62km
Actualización: Sat, 15-May-2021 5:00am CEST
Despejado
Despejado
 Viento del calm
Viento: Calma
Temperatura: 10°C
Rocío: 7°C
Humedad: 82%
Barómetro: 1019 hPa
Resumen: Despejado
Visibility: greater than 10 km
2021/05/15 03:00 LEGR 150300Z AUTO 00000KT CAVOK 10/07 Q1019
LEMG - Malaga (civ/Mil), Spain
Distance from station: OSO 227km
Actualización: Sat, 15-May-2021 5:00am CEST
Despejado
Despejado
 Viento del O
Viento: O 17 km/h
Temperatura: 16°C
Rocío: 12°C
Humedad: 77%
Barómetro: 1017 hPa
Resumen: Despejado
Visibility: greater than 10 km
2021/05/15 03:00 LEMG 150300Z 28009KT CAVOK 16/12 Q1017 NOSIG
 
LEZL - Sevilla (civ/Mil, Spain
Distance from station: S 318km
Actualización: Sat, 15-May-2021 5:00am CEST
Despejado
Despejado
 Viento del NNE
Viento: NNE 11 km/h
Temperatura: 17°C
Rocío: 10°C
Humedad: 64%
Barómetro: 1017 hPa
Resumen: Despejado
Visibility: greater than 10 km
2021/05/15 03:00 LEZL 150300Z AUTO 03006KT CAVOK 17/10 Q1017
LEVT - Vitoria, Spain
Distance from station: NO 226km
Actualización: Sat, 15-May-2021 5:00am CEST
Lluvia débil, Muy nuboso
Lluvia débil, Muy nuboso
 Viento del NE
Viento: NE 2 km/h
Temperatura: 11°C
Rocío: 10°C
Humedad: 94%
Barómetro: 1013 hPa
Resumen: Lluvia débil
Clouds: Muy nuboso
Visibility: 10 km
Cloud details: Muy nuboso 2347 m
2021/05/15 03:00 LEVT 150300Z 04001KT 9999 -RA BKN077 11/10 Q1013
 
LEBB - Bilbao/Sondica, Spain
Distance from station: NNO 235km
Actualización: Sat, 15-May-2021 5:00am CEST
Parcialmente nuboso
Parcialmente nuboso
 Viento del ESE
Viento: ESE 7 km/h
Temperatura: 13°C
Rocío: 11°C
Humedad: 88%
Barómetro: 1013 hPa
Clouds: Parcialmente nuboso
Visibility: 10 km
Cloud details: Parcialmente nuboso 2134 m
2021/05/15 03:00 LEBB 150300Z 12004KT 9999 SCT070 13/11 Q1013 NOSIG
LESO - San Sebastian/Fu, Spain
Distance from station: N 231km
Actualización: Sat, 15-May-2021 5:00am CEST
Despejado
Despejado
 Viento del SSO
Viento: SSO 7 km/h
Temperatura: 13°C
Rocío: 11°C
Humedad: 88%
Barómetro: 1013 hPa
Resumen: Despejado
Visibility: greater than 10 km
2021/05/15 03:00 LESO 150300Z AUTO 20004KT 170V250 CAVOK 13/11 Q1013
 
LEVD - Valladolid(Mil/C, Spain
Distance from station: ONO 239km
Actualización: Sat, 15-May-2021 5:00am CEST
Despejado
Despejado
 Viento del O
Viento: O 22 km/h
Temperatura: 10°C
Sensación frio: 7°C
Rocío: 8°C
Humedad: 88%
Barómetro: 1016 hPa
Resumen: Despejado
Visibility: greater than 10 km
2021/05/15 03:00 LEVD 150300Z AUTO 26012KT CAVOK 10/08 Q1016
LESA - Salamanca (civ/M, Spain
Distance from station: ONO 349km
Actualización: Sat, 15-May-2021 5:00am CEST

 Viento del OSO
Viento: OSO 19 km/h
Temperatura: 9°C
Sensación frio: 6°C
Rocío: 8°C
Humedad: 94%
Barómetro: 1018 hPa
Visibility: 10 km
2021/05/15 03:00 LESA 150300Z AUTO 25010KT 9999 ////// 09/08 Q1018
 
LEXJ - Santander/Paraya, Spain
Distance from station: NNO 247km
Actualización: Sat, 15-May-2021 5:00am CEST
Lluvia débil, Cubierto
Lluvia débil, Cubierto
 Viento del SSE
Viento: SSE 7 km/h
Temperatura: 13°C
Rocío: 12°C
Humedad: 94%
Barómetro: 1012 hPa
Resumen: Lluvia débil
Clouds: Cubierto
Visibility: 9 km
Cloud details: Cubierto 1829 m
2021/05/15 03:00 LEXJ 150300Z AUTO 16004KT 9000 -RA OVC060 13/12 Q1012
LEAS - Asturias/Aviles, Spain
Distance from station: NO 214km
Actualización: Sat, 15-May-2021 5:00am CEST
Cubierto
Cubierto
 Viento del varies
Viento: varies 9 km/h
Temperatura: 14°C
Rocío: 12°C
Humedad: 88%
Barómetro: 1011 hPa
Clouds: Cubierto
Visibility: 10 km
Cloud details: Cubierto 1433 m
2021/05/15 03:00 LEAS 150300Z AUTO VRB05KT 9999 OVC047 14/12 Q1011
 
LECO - La Coruna/Alvedr, Spain
Distance from station: ONO 222km
Actualización: Sat, 15-May-2021 5:00am CEST
Lluvia débil, Mist, Patches of, Niebla, Muy nuboso
Lluvia débil, Mist, Patches of, Niebla, Muy nuboso
 Viento del varies
Viento: varies 4 km/h
Temperatura: 15°C
Rocío: 15°C
Humedad: 100%
Barómetro: 1012 hPa
Resumen: Lluvia débil, Mist, Patches of, Niebla
Clouds: Muy nuboso
Visibility: 4 km
Cloud details: Few Clouds 549 m
Muy nuboso 914 m
2021/05/15 03:00 LECO 150300Z AUTO VRB02KT 4100 0450SW R21/P2000 R03/1300D -RA BR BCFG FEW018 BKN030 15/15 Q1012 RERA
LEVX - Vigo/Peinador, Spain
Distance from station: O 214km
Actualización: Sat, 15-May-2021 5:00am CEST
Niebla, Cubierto
Niebla, Cubierto
 Viento del SSO
Viento: SSO 17 km/h
Temperatura: 13°C
Rocío: 13°C
Humedad: 100%
Barómetro: 1015 hPa
Resumen: Niebla
Clouds: Cubierto
Visibility: 1 km
Cloud details: Cubierto 30 m
2021/05/15 03:00 LEVX 150300Z 20009KT 160V230 1000 R19/P2000 R01/0650N FG VV001 13/13 Q1015 TEMPO 0400 FG VV001